Time;durP1;ratioP1;P1;durP2;ratioP2;P2;SDS_P1;SDS_P2;PMS_P1;PMS_P2;Temp;Humidity;BMP_temperature;BMP_pressure;BME280_temperature;BME280_humidity;BME280_pressure;Samples;Min_cycle;Max_cycle;Signal;HPM_P1;HPM_P2
2022/07/01 11:31:58;;;;;;;12.35;7.07;;;;;;;;;;6170304;23;20021;-84
2022/07/01 11:34:28;;;;;;;12.13;7.68;;;;;;;;;;6191103;23;20016;-82
2022/07/01 11:39:41;;;;;;;12.07;7.18;;;;;;;;;;6187783;23;20055;-82
2022/07/01 11:42:11;;;;;;;17.60;9.13;;;;;;;;;;6187821;23;20009;-84
2022/07/01 11:44:42;;;;;;;16.65;8.23;;;;;;;;;;6161177;23;20015;-80
2022/07/01 11:47:21;;;;;;;16.25;8.55;;;;;;;;;;6187528;23;20013;-80
2022/07/01 16:04:56;;;;;;;4.82;2.88;;;;;;;;;;6201716;23;20047;-80
2022/07/01 16:07:24;;;;;;;7.50;2.95;;;;;;;;;;6222719;23;20463;-80
2022/07/01 16:10:01;;;;;;;6.67;3.20;;;;;;;;;;6222771;23;20028;-80
2022/07/01 16:12:28;;;;;;;5.07;2.63;;;;;;;;;;6222360;23;20321;-79
2022/07/01 16:14:54;;;;;;;7.00;3.42;;;;;;;;;;6222438;23;20007;-79
2022/07/01 16:17:23;;;;;;;6.93;3.40;;;;;;;;;;6224044;23;20446;-80
2022/07/01 16:19:53;;;;;;;7.70;3.60;;;;;;;;;;6222630;23;20001;-79
2022/07/01 16:22:20;;;;;;;7.38;3.80;;;;;;;;;;6222193;23;20483;-78
2022/07/01 16:24:48;;;;;;;6.20;3.38;;;;;;;;;;6217160;23;20431;-79
2022/07/01 16:27:14;;;;;;;7.35;3.63;;;;;;;;;;6220217;23;20011;-80
2022/07/01 16:29:42;;;;;;;5.93;3.90;;;;;;;;;;6219447;23;20028;-79
2022/07/01 16:32:10;;;;;;;5.95;3.60;;;;;;;;;;6220194;23;20015;-80
2022/07/01 16:34:35;;;;;;;5.73;3.87;;;;;;;;;;6221871;23;20001;-80
2022/07/01 16:37:02;;;;;;;6.80;3.90;;;;;;;;;;6223184;23;20008;-80
2022/07/01 16:39:29;;;;;;;6.72;3.65;;;;;;;;;;6220895;23;20005;-78
2022/07/01 16:42:15;;;;;;;8.40;3.83;;;;;;;;;;6224424;23;20048;-79
2022/07/01 16:44:52;;;;;;;5.47;3.72;;;;;;;;;;6225470;23;20424;-79
2022/07/01 16:47:27;;;;;;;6.00;3.63;;;;;;;;;;6223091;23;20005;-79
2022/07/01 16:49:56;;;;;;;10.65;3.85;;;;;;;;;;6196090;23;20004;-80
2022/07/01 16:52:24;;;;;;;;;;;;;;;;;;6222567;23;20442;-80
2022/07/01 16:54:57;;;;;;;7.38;3.65;;;;;;;;;;6222297;23;20283;-80
2022/07/01 16:57:25;;;;;;;7.32;3.80;;;;;;;;;;6221059;23;20079;-81
2022/07/01 16:59:51;;;;;;;5.67;3.13;;;;;;;;;;6220909;23;20039;-79
2022/07/01 17:02:19;;;;;;;4.65;3.40;;;;;;;;;;6217584;23;20035;-80
2022/07/01 17:04:46;;;;;;;4.82;3.33;;;;;;;;;;6217391;23;20420;-80
2022/07/01 17:07:11;;;;;;;8.32;3.55;;;;;;;;;;6216931;23;20004;-80
2022/07/01 17:09:40;;;;;;;2.85;2.47;;;;;;;;;;6216922;23;20004;-80
2022/07/01 17:12:07;;;;;;;;;;;;;;;;;;6218017;23;20012;-81
2022/07/01 17:14:33;;;;;;;5.95;3.35;;;;;;;;;;6218217;23;19990;-83
2022/07/01 17:16:59;;;;;;;5.78;3.67;;;;;;;;;;6218043;23;20054;-85
2022/07/01 17:19:25;;;;;;;5.13;2.90;;;;;;;;;;6218187;23;20320;-85
2022/07/01 17:21:53;;;;;;;6.15;3.00;;;;;;;;;;6217647;23;20009;-83
2022/07/01 17:24:19;;;;;;;4.05;3.22;;;;;;;;;;6220393;23;20001;-84
2022/07/01 17:26:58;;;;;;;4.07;3.17;;;;;;;;;;6224111;23;20095;-82
2022/07/01 17:29:28;;;;;;;11.40;3.35;;;;;;;;;;6220004;23;20004;-85
2022/07/01 17:32:06;;;;;;;6.75;3.40;;;;;;;;;;6217172;23;20013;-84
2022/07/01 17:34:31;;;;;;;4.68;2.80;;;;;;;;;;6217319;23;20408;-84
2022/07/01 17:36:59;;;;;;;4.85;2.70;;;;;;;;;;6217149;23;20004;-85
2022/07/01 17:39:30;;;;;;;3.42;3.10;;;;;;;;;;6217769;23;20011;-86
2022/07/01 17:41:59;;;;;;;6.88;3.22;;;;;;;;;;6217426;23;20000;-87
2022/07/01 17:44:26;;;;;;;3.78;3.42;;;;;;;;;;6190177;23;20419;-84
2022/07/01 17:46:52;;;;;;;4.45;3.20;;;;;;;;;;6216713;23;20008;-88
2022/07/01 17:49:23;;;;;;;5.45;3.40;;;;;;;;;;6217183;23;20028;-85
2022/07/01 17:51:48;;;;;;;6.40;3.30;;;;;;;;;;6216515;23;20001;-84
2022/07/01 17:54:16;;;;;;;25.67;9.82;;;;;;;;;;6190798;23;20005;-85
2022/07/01 17:56:42;;;;;;;12.40;6.43;;;;;;;;;;6219333;23;20300;-84
2022/07/01 17:59:10;;;;;;;7.88;4.20;;;;;;;;;;6218208;23;20000;-85
2022/07/01 18:01:36;;;;;;;4.63;3.15;;;;;;;;;;6217711;23;20016;-86
2022/07/01 18:04:04;;;;;;;4.38;2.78;;;;;;;;;;6216983;23;20005;-85
2022/07/01 18:06:30;;;;;;;4.75;3.22;;;;;;;;;;6190798;23;20012;-85
2022/07/01 18:08:57;;;;;;;5.57;3.13;;;;;;;;;;6219934;23;20005;-85
2022/07/01 18:11:47;;;;;;;4.25;3.03;;;;;;;;;;6190095;23;20083;-85
2022/07/01 18:14:43;;;;;;;4.43;3.05;;;;;;;;;;6216831;23;20005;-84
2022/07/01 18:17:19;;;;;;;4.38;3.72;;;;;;;;;;6216424;23;20078;-84
2022/07/01 18:19:58;;;;;;;3.63;2.80;;;;;;;;;;6216258;23;20001;-84
2022/07/01 18:22:33;;;;;;;3.08;2.60;;;;;;;;;;6189703;23;20021;-83
2022/07/01 18:25:00;;;;;;;3.10;2.58;;;;;;;;;;6216343;23;20004;-85
2022/07/01 18:27:38;;;;;;;3.15;2.53;;;;;;;;;;6216582;23;20031;-85
2022/07/01 18:30:06;;;;;;;3.78;2.90;;;;;;;;;;6216436;23;20051;-83
2022/07/01 18:32:35;;;;;;;4.07;2.88;;;;;;;;;;6216672;23;20005;-85
2022/07/01 18:35:02;;;;;;;;;;;;;;;;;;6190266;23;20020;-85
2022/07/01 18:37:43;;;;;;;3.17;2.53;;;;;;;;;;6216278;23;19908;-85
2022/07/01 18:40:10;;;;;;;5.82;3.80;;;;;;;;;;6216094;23;20046;-84
2022/07/01 18:42:36;;;;;;;4.72;3.10;;;;;;;;;;6189352;23;20001;-85
2022/07/01 18:45:03;;;;;;;6.50;3.33;;;;;;;;;;6215802;23;20000;-82
2022/07/01 18:47:30;;;;;;;4.20;2.50;;;;;;;;;;6215920;23;20351;-82
2022/07/01 18:49:56;;;;;;;4.43;2.45;;;;;;;;;;6216185;23;20104;-83
2022/07/01 18:52:21;;;;;;;3.03;2.72;;;;;;;;;;6215961;23;20036;-83
2022/07/01 18:54:48;;;;;;;3.28;2.50;;;;;;;;;;6216199;23;20015;-81
2022/07/01 18:57:13;;;;;;;3.47;2.45;;;;;;;;;;6216188;23;20009;-82
2022/07/01 18:59:39;;;;;;;4.55;3.13;;;;;;;;;;6216002;23;20338;-81
2022/07/01 19:02:05;;;;;;;5.00;2.75;;;;;;;;;;6216593;23;20005;-79
2022/07/01 19:04:31;;;;;;;3.47;2.42;;;;;;;;;;6218664;23;20040;-79
2022/07/01 19:06:57;;;;;;;4.53;2.60;;;;;;;;;;6217746;23;20091;-81
2022/07/01 19:09:22;;;;;;;3.58;2.80;;;;;;;;;;6217724;23;20087;-81
2022/07/01 19:11:48;;;;;;;3.20;2.65;;;;;;;;;;6217615;23;20306;-81
2022/07/01 19:14:13;;;;;;;3.15;2.58;;;;;;;;;;6217560;23;20028;-81
2022/07/01 19:16:39;;;;;;;3.22;2.75;;;;;;;;;;6217665;23;20001;-85
2022/07/01 19:19:04;;;;;;;4.70;2.88;;;;;;;;;;6191957;23;20005;-84
2022/07/01 19:21:29;;;;;;;3.42;2.45;;;;;;;;;;6218954;23;20004;-87
2022/07/01 19:23:55;;;;;;;4.40;2.60;;;;;;;;;;6217930;23;20127;-83
2022/07/01 19:26:21;;;;;;;3.97;2.17;;;;;;;;;;6217793;23;20001;-87
2022/07/01 19:28:46;;;;;;;25.05;3.40;;;;;;;;;;6218792;23;20404;-94
2022/07/01 19:31:14;;;;;;;2.72;1.90;;;;;;;;;;6203673;23;20004;-91
2022/07/01 19:33:40;;;;;;;4.88;2.78;;;;;;;;;;6215784;23;20030;-94
2022/07/01 19:36:07;;;;;;;2.40;2.00;;;;;;;;;;6223970;23;20039;-93
2022/07/01 19:38:32;;;;;;;3.78;2.50;;;;;;;;;;6235622;23;20012;-91
2022/07/01 19:40:58;;;;;;;3.70;2.15;;;;;;;;;;6194815;23;20367;-91
2022/07/01 19:43:23;;;;;;;3.83;2.38;;;;;;;;;;6198521;23;20024;-85
2022/07/01 19:45:49;;;;;;;2.67;2.10;;;;;;;;;;6197575;23;20367;-89
2022/07/01 19:48:15;;;;;;;3.70;2.05;;;;;;;;;;6220346;23;20007;-87
2022/07/01 19:50:42;;;;;;;2.70;2.40;;;;;;;;;;6227400;23;20001;-89
2022/07/01 19:53:08;;;;;;;3.50;2.38;;;;;;;;;;6202631;23;20012;-88
2022/07/01 19:55:33;;;;;;;2.97;2.22;;;;;;;;;;6200847;23;20047;-90
2022/07/01 19:57:59;;;;;;;3.60;1.95;;;;;;;;;;6207213;23;20005;-88
2022/07/01 20:00:27;;;;;;;3.15;2.08;;;;;;;;;;6198920;23;20004;-89
2022/07/01 20:02:53;;;;;;;3.40;2.15;;;;;;;;;;6222061;23;20008;-88
2022/07/01 20:05:19;;;;;;;2.28;1.95;;;;;;;;;;6196861;23;20309;-88
2022/07/01 20:07:44;;;;;;;2.67;1.98;;;;;;;;;;6230447;23;20039;-88
2022/07/01 20:10:11;;;;;;;2.58;2.35;;;;;;;;;;6177540;23;20009;-90
2022/07/01 20:12:36;;;;;;;3.08;2.30;;;;;;;;;;6230927;23;20001;-88
2022/07/01 20:15:03;;;;;;;3.75;2.30;;;;;;;;;;6228214;23;20328;-90
2022/07/01 20:17:29;;;;;;;3.58;1.83;;;;;;;;;;6201719;23;20009;-90
2022/07/01 20:19:55;;;;;;;2.30;2.10;;;;;;;;;;6226900;23;20005;-89
2022/07/01 20:22:21;;;;;;;3.00;2.72;;;;;;;;;;6201747;23;20004;-88
2022/07/01 20:24:46;;;;;;;2.30;2.10;;;;;;;;;;6228770;23;20431;-90
2022/07/01 20:27:12;;;;;;;3.03;2.00;;;;;;;;;;6199711;23;20363;-88
2022/07/01 20:29:38;;;;;;;3.30;2.00;;;;;;;;;;6200236;23;20332;-87
2022/07/01 20:32:04;;;;;;;2.95;2.10;;;;;;;;;;6218075;23;20387;-86
2022/07/01 20:34:29;;;;;;;2.50;2.25;;;;;;;;;;6191632;23;20324;-87
2022/07/01 20:36:54;;;;;;;3.63;2.10;;;;;;;;;;6220122;23;20004;-87
2022/07/01 20:39:20;;;;;;;5.00;2.13;;;;;;;;;;6220829;23;20001;-88
2022/07/01 20:41:45;;;;;;;3.28;2.10;;;;;;;;;;6193359;23;20087;-88
2022/07/01 20:44:11;;;;;;;3.33;2.33;;;;;;;;;;6222168;23;20444;-87
2022/07/01 20:46:36;;;;;;;4.75;2.30;;;;;;;;;;6194374;23;20084;-88
2022/07/01 20:49:02;;;;;;;3.58;1.92;;;;;;;;;;6219327;23;20447;-89
2022/07/01 20:51:27;;;;;;;2.70;2.13;;;;;;;;;;6218964;23;20032;-89
2022/07/01 20:53:53;;;;;;;3.25;2.40;;;;;;;;;;6191264;23;20009;-88
2022/07/01 20:56:18;;;;;;;2.78;1.98;;;;;;;;;;6191919;23;20083;-90
2022/07/01 20:58:46;;;;;;;3.08;2.10;;;;;;;;;;6191898;23;20441;-90
2022/07/01 21:01:11;;;;;;;3.88;2.20;;;;;;;;;;6219665;23;20001;-90
2022/07/01 21:03:40;;;;;;;2.45;2.03;;;;;;;;;;6218593;23;20015;-89
2022/07/01 21:06:06;;;;;;;2.28;2.00;;;;;;;;;;6217520;23;20009;-88
2022/07/01 21:08:31;;;;;;;2.88;2.55;;;;;;;;;;6190648;23;20007;-87
2022/07/01 21:10:57;;;;;;;3.45;2.47;;;;;;;;;;6218541;23;20001;-87
2022/07/01 21:13:22;;;;;;;2.97;2.25;;;;;;;;;;6217251;23;20059;-89
2022/07/01 21:15:48;;;;;;;3.08;2.50;;;;;;;;;;6218079;23;20011;-88
2022/07/01 21:18:13;;;;;;;4.72;2.30;;;;;;;;;;6218754;23;20043;-88
2022/07/01 21:20:39;;;;;;;3.67;2.63;;;;;;;;;;6218162;23;20028;-89
2022/07/01 21:23:04;;;;;;;2.25;2.05;;;;;;;;;;6218239;23;20028;-89
2022/07/01 21:25:30;;;;;;;2.20;2.00;;;;;;;;;;6192831;23;20328;-89
2022/07/01 21:27:57;;;;;;;3.75;2.58;;;;;;;;;;6192944;23;20004;-90
2022/07/01 21:30:25;;;;;;;2.63;2.42;;;;;;;;;;6195043;23;20032;-89
2022/07/01 21:32:52;;;;;;;3.25;2.08;;;;;;;;;;6219269;23;20028;-90
2022/07/01 21:35:18;;;;;;;4.40;2.40;;;;;;;;;;6218841;23;19997;-89
2022/07/01 21:37:43;;;;;;;2.15;1.95;;;;;;;;;;6218549;23;20001;-90
2022/07/01 21:40:09;;;;;;;2.30;2.10;;;;;;;;;;6191092;23;20031;-89
2022/07/01 21:42:37;;;;;;;3.25;2.20;;;;;;;;;;6217888;23;20006;-82
2022/07/01 21:45:02;;;;;;;2.70;2.30;;;;;;;;;;6190279;23;20436;-90
2022/07/01 21:47:30;;;;;;;2.30;2.10;;;;;;;;;;6190523;23;20001;-89
2022/07/01 21:49:57;;;;;;;3.45;2.22;;;;;;;;;;6217610;23;20008;-89
